createdAt,value
2022-12-18T00:01:36.717Z,39.50
2022-12-18T00:04:06.634Z,39.20
2022-12-18T00:06:36.155Z,33.38
2022-12-18T00:09:04.519Z,43.88
2022-12-18T00:11:32.523Z,38.77
2022-12-18T00:14:00.907Z,37.92
2022-12-18T00:16:31.263Z,42.08
2022-12-18T00:18:59.781Z,39.35
2022-12-18T00:21:28.788Z,36.70
2022-12-18T00:23:57.622Z,37.20
2022-12-18T00:26:28.304Z,39.10
2022-12-18T00:29:04.054Z,35.25
2022-12-18T00:31:33.732Z,36.47
2022-12-18T00:34:03.311Z,39.38
2022-12-18T00:36:33.661Z,38.70
2022-12-18T00:39:03.182Z,40.47
2022-12-18T00:41:49.553Z,39.58
2022-12-18T00:44:18.886Z,35.67
2022-12-18T00:46:48.383Z,37.97
2022-12-18T00:49:19.099Z,35.67
2022-12-18T00:51:47.974Z,35.55
2022-12-18T00:54:15.880Z,38.85
2022-12-18T00:56:49.486Z,40.97
2022-12-18T00:59:18.406Z,40.42
2022-12-18T01:01:46.647Z,39.40
2022-12-18T01:04:14.992Z,35.97
2022-12-18T01:06:45.377Z,34.90
2022-12-18T01:09:12.991Z,41.22
2022-12-18T01:11:41.073Z,34.30
2022-12-18T01:14:08.657Z,35.50
2022-12-18T01:16:38.688Z,28.00
2022-12-18T01:19:06.246Z,35.17
2022-12-18T01:21:34.276Z,35.75
2022-12-18T01:24:05.401Z,33.20
2022-12-18T01:26:32.870Z,33.77
2022-12-18T01:29:00.429Z,32.90
2022-12-18T01:31:31.108Z,39.90
2022-12-18T01:34:01.104Z,37.53
2022-12-18T01:36:33.966Z,37.30
2022-12-18T01:39:04.520Z,37.43
2022-12-18T01:41:53.046Z,36.58
2022-12-18T01:44:52.407Z,33.35
2022-12-18T01:47:25.846Z,34.53
2022-12-18T01:49:55.332Z,36.28
2022-12-18T01:52:25.528Z,33.20
2022-12-18T01:54:53.790Z,36.25
2022-12-18T01:57:24.583Z,31.40
2022-12-18T01:59:54.800Z,34.92
2022-12-18T02:02:23.207Z,34.05
2022-12-18T02:04:50.813Z,31.50
2022-12-18T02:07:19.762Z,33.15
2022-12-18T02:10:00.245Z,38.13
2022-12-18T02:12:53.820Z,36.50
2022-12-18T02:15:37.405Z,43.15
2022-12-18T02:18:19.162Z,31.23
2022-12-18T02:21:22.447Z,32.25
2022-12-18T02:24:12.492Z,32.08
2022-12-18T02:26:52.533Z,39.13
2022-12-18T02:29:57.571Z,33.20
2022-12-18T02:32:30.585Z,33.90
2022-12-18T02:35:00.528Z,35.47
2022-12-18T02:37:31.600Z,35.45
2022-12-18T02:40:05.658Z,31.83
2022-12-18T02:42:35.744Z,32.42
2022-12-18T02:45:06.192Z,33.50
2022-12-18T02:47:39.231Z,37.83
2022-12-18T02:50:13.787Z,38.55
2022-12-18T02:53:38.075Z,36.90
2022-12-18T02:56:19.749Z,30.60
2022-12-18T02:58:58.918Z,36.13
2022-12-18T03:01:53.407Z,33.67
2022-12-18T03:04:40.734Z,34.88
2022-12-18T03:07:16.684Z,35.75
2022-12-18T03:09:50.478Z,34.65
2022-12-18T03:13:07.543Z,34.07
2022-12-18T03:15:40.668Z,29.20
2022-12-18T03:18:36.805Z,35.92
2022-12-18T03:21:07.620Z,37.63
2022-12-18T03:23:45.869Z,34.10
2022-12-18T03:26:20.936Z,38.33
2022-12-18T03:28:58.680Z,34.92
2022-12-18T03:31:30.192Z,31.45
2022-12-18T03:34:06.736Z,32.88
2022-12-18T03:36:42.691Z,35.10
2022-12-18T03:39:10.394Z,36.67
2022-12-18T03:42:07.452Z,37.00
2022-12-18T03:44:45.707Z,36.75
2022-12-18T03:47:31.506Z,30.95
2022-12-18T03:50:26.991Z,29.20
2022-12-18T03:53:28.509Z,36.73
2022-12-18T03:55:56.870Z,32.88
2022-12-18T03:58:30.116Z,30.88
2022-12-18T04:01:17.527Z,31.88
2022-12-18T04:03:48.595Z,32.20
2022-12-18T04:06:19.140Z,35.07
2022-12-18T04:08:48.390Z,31.02
2022-12-18T04:11:19.423Z,33.10
2022-12-18T04:13:48.712Z,37.25
2022-12-18T04:16:21.664Z,28.98
2022-12-18T04:18:52.880Z,34.17
2022-12-18T04:21:22.489Z,30.75
2022-12-18T04:23:51.076Z,35.25
2022-12-18T04:26:21.444Z,32.50
2022-12-18T04:29:07.752Z,30.27
2022-12-18T04:31:35.345Z,34.70
2022-12-18T04:34:03.865Z,35.08
2022-12-18T04:36:37.999Z,31.58
2022-12-18T04:39:05.674Z,31.33
2022-12-18T04:41:33.576Z,25.73
2022-12-18T04:44:01.420Z,32.33
2022-12-18T04:46:28.984Z,31.52
2022-12-18T04:48:56.531Z,31.25
2022-12-18T04:51:26.593Z,29.02
2022-12-18T04:53:54.846Z,33.40
2022-12-18T04:56:22.510Z,32.23
2022-12-18T04:58:50.476Z,30.65
2022-12-18T05:01:19.447Z,32.15
2022-12-18T05:03:47.205Z,35.15
2022-12-18T05:06:15.096Z,42.25
2022-12-18T05:08:42.628Z,39.80
2022-12-18T05:11:12.749Z,39.13
2022-12-18T05:13:40.595Z,38.70
2022-12-18T05:16:09.343Z,37.08
2022-12-18T05:18:37.310Z,39.67
2022-12-18T05:21:05.731Z,36.00
2022-12-18T05:23:36.342Z,37.30
2022-12-18T05:26:06.333Z,35.45
2022-12-18T05:28:36.019Z,37.85
2022-12-18T05:31:05.345Z,31.98
2022-12-18T05:33:35.659Z,30.03
2022-12-18T05:36:05.236Z,32.92
2022-12-18T05:38:34.637Z,36.38
2022-12-18T05:41:02.476Z,32.00
2022-12-18T05:43:30.288Z,32.47
2022-12-18T05:45:58.565Z,39.43
2022-12-18T05:48:27.177Z,33.00
2022-12-18T05:50:54.706Z,37.75
2022-12-18T05:53:22.264Z,29.42
2022-12-18T05:55:49.878Z,36.63
2022-12-18T05:58:17.608Z,45.60
2022-12-18T06:00:47.108Z,40.15
2022-12-18T06:03:15.069Z,41.25
2022-12-18T06:05:45.046Z,33.83
2022-12-18T06:08:14.089Z,34.92
2022-12-18T06:10:42.690Z,37.10
2022-12-18T06:13:10.244Z,38.60
2022-12-18T06:15:38.367Z,44.08
2022-12-18T06:18:06.093Z,40.47
2022-12-18T06:20:34.173Z,37.10
2022-12-18T06:23:01.790Z,36.60
2022-12-18T06:25:29.516Z,42.67
2022-12-18T06:27:57.285Z,38.47
2022-12-18T06:30:24.822Z,45.38
2022-12-18T06:32:56.749Z,34.47
2022-12-18T06:35:24.578Z,32.83
2022-12-18T06:37:52.112Z,40.53
2022-12-18T06:40:20.052Z,28.70
2022-12-18T06:42:47.667Z,35.78
2022-12-18T06:45:17.029Z,35.42
2022-12-18T06:47:44.713Z,63.23
2022-12-18T06:50:12.898Z,49.42
2022-12-18T06:52:45.242Z,38.42
2022-12-18T06:55:12.728Z,37.20
2022-12-18T06:57:40.249Z,38.50
2022-12-18T07:00:08.678Z,39.43
2022-12-18T07:02:36.578Z,42.08
2022-12-18T07:05:10.311Z,38.88
2022-12-18T07:07:39.170Z,41.28
2022-12-18T07:10:06.933Z,40.03
2022-12-18T07:12:34.521Z,36.37
2022-12-18T07:15:02.080Z,35.28
2022-12-18T07:17:30.622Z,37.55
2022-12-18T07:19:58.043Z,46.20
2022-12-18T07:22:27.139Z,33.55
2022-12-18T07:24:54.597Z,35.37
2022-12-18T07:27:23.099Z,35.50
2022-12-18T07:29:50.639Z,36.10
2022-12-18T07:32:18.230Z,32.25
2022-12-18T07:34:46.174Z,34.08
2022-12-18T07:37:14.733Z,41.73
2022-12-18T07:39:42.417Z,47.72
2022-12-18T07:42:28.762Z,45.92
2022-12-18T07:44:56.228Z,38.40
2022-12-18T07:47:24.232Z,38.22
2022-12-18T07:49:51.735Z,37.77
2022-12-18T07:52:25.613Z,38.25
2022-12-18T07:54:53.687Z,27.85
2022-12-18T07:57:48.844Z,33.38
2022-12-18T08:00:09.639Z,36.53
2022-12-18T08:02:39.993Z,37.30
2022-12-18T08:05:07.816Z,32.45
2022-12-18T08:07:35.308Z,33.92
2022-12-18T08:10:03.255Z,31.80
2022-12-18T08:12:31.772Z,33.47
2022-12-18T08:14:59.289Z,31.80
2022-12-18T08:17:26.850Z,41.30
2022-12-18T08:19:54.362Z,38.45
2022-12-18T08:22:21.868Z,33.95
2022-12-18T08:24:49.400Z,33.15
2022-12-18T08:27:32.226Z,27.80
2022-12-18T08:30:00.172Z,28.63
2022-12-18T08:32:28.982Z,37.13
2022-12-18T08:34:56.576Z,39.22
2022-12-18T08:37:24.121Z,32.05
2022-12-18T08:39:51.738Z,26.40
2022-12-18T08:42:38.739Z,27.73
2022-12-18T08:45:06.709Z,32.55
2022-12-18T08:47:34.231Z,30.67
2022-12-18T08:50:02.078Z,31.20
2022-12-18T08:52:29.763Z,24.57
2022-12-18T08:54:57.235Z,22.50
2022-12-18T08:57:24.737Z,24.20
2022-12-18T08:59:52.798Z,21.10
2022-12-18T09:02:20.609Z,24.77
2022-12-18T09:04:53.825Z,21.45
2022-12-18T09:07:24.752Z,23.45
2022-12-18T09:09:52.301Z,19.38
2022-12-18T09:12:19.809Z,22.55
2022-12-18T09:14:47.340Z,18.55
2022-12-18T09:17:14.931Z,20.20
2022-12-18T09:19:43.291Z,20.20
2022-12-18T09:22:11.602Z,20.83
2022-12-18T09:24:39.239Z,21.90
2022-12-18T09:27:06.983Z,21.35
2022-12-18T09:29:35.513Z,20.90
2022-12-18T09:32:04.342Z,24.30
2022-12-18T09:34:31.844Z,19.05
2022-12-18T09:36:59.440Z,21.65
2022-12-18T09:39:27.065Z,23.45
2022-12-18T09:41:58.035Z,19.50
2022-12-18T09:44:25.620Z,24.40
2022-12-18T09:47:13.026Z,22.85
2022-12-18T09:49:44.497Z,20.67
2022-12-18T09:52:35.389Z,18.58
2022-12-18T09:55:15.160Z,23.00
2022-12-18T09:57:52.317Z,22.27
2022-12-18T10:00:22.486Z,21.58
2022-12-18T10:02:52.975Z,20.02
2022-12-18T10:05:47.506Z,20.15
2022-12-18T10:08:40.149Z,20.50
2022-12-18T10:11:35.682Z,19.80
2022-12-18T10:14:15.425Z,20.60
2022-12-18T10:16:57.434Z,21.42
2022-12-18T10:19:41.129Z,18.60
2022-12-18T10:22:19.737Z,20.98
2022-12-18T10:25:06.430Z,20.83
2022-12-18T10:27:34.608Z,20.98
2022-12-18T10:30:13.988Z,23.60
2022-12-18T10:32:42.034Z,23.73
2022-12-18T10:35:26.454Z,24.45
2022-12-18T10:38:21.659Z,21.80
2022-12-18T10:41:12.468Z,26.38
2022-12-18T10:43:41.806Z,25.52
2022-12-18T10:46:09.488Z,22.08
2022-12-18T10:48:48.276Z,24.60
2022-12-18T10:51:36.561Z,24.13
2022-12-18T10:54:13.989Z,19.33
2022-12-18T10:56:42.249Z,19.77
2022-12-18T10:59:15.431Z,21.25
2022-12-18T11:02:01.301Z,21.83
2022-12-18T11:04:31.991Z,19.93
2022-12-18T11:07:04.965Z,23.42
2022-12-18T11:09:40.665Z,21.80
2022-12-18T11:12:20.851Z,21.02
2022-12-18T11:14:52.008Z,26.17
2022-12-18T11:17:36.992Z,23.70
2022-12-18T11:20:29.246Z,19.50
2022-12-18T11:22:59.331Z,21.52
2022-12-18T11:25:33.152Z,21.48
2022-12-18T11:28:24.322Z,21.17
2022-12-18T11:31:12.817Z,19.67
2022-12-18T11:34:04.738Z,22.02
2022-12-18T11:36:39.312Z,24.10
2022-12-18T11:39:18.383Z,22.00
2022-12-18T11:42:13.875Z,24.75
2022-12-18T11:44:46.131Z,20.57
2022-12-18T11:47:41.159Z,24.83
2022-12-18T11:50:19.823Z,24.33
2022-12-18T11:52:50.414Z,19.52
2022-12-18T11:55:34.054Z,21.10
2022-12-18T11:58:40.265Z,19.97
2022-12-18T12:01:20.140Z,20.50
2022-12-18T12:04:31.917Z,19.27
2022-12-18T12:07:11.076Z,18.58
2022-12-18T12:10:10.836Z,19.52
2022-12-18T12:13:00.490Z,18.30
2022-12-18T12:15:45.021Z,15.93
2022-12-18T12:18:30.642Z,20.30
2022-12-18T12:21:05.087Z,15.10
2022-12-18T12:23:41.479Z,18.33
2022-12-18T12:26:27.269Z,15.97
2022-12-18T12:29:10.271Z,21.05
2022-12-18T12:31:59.564Z,18.70
2022-12-18T12:35:09.688Z,21.02
2022-12-18T12:37:55.918Z,18.08
2022-12-18T12:40:51.357Z,19.37
2022-12-18T12:43:23.503Z,20.08
2022-12-18T12:45:56.584Z,19.10
2022-12-18T12:48:35.372Z,24.38
2022-12-18T12:51:10.723Z,21.60
2022-12-18T12:53:40.890Z,21.80
2022-12-18T12:56:13.289Z,18.08
2022-12-18T12:58:56.441Z,18.70
2022-12-18T13:01:33.724Z,17.70
2022-12-18T13:04:21.603Z,17.75
2022-12-18T13:06:54.394Z,19.87
2022-12-18T13:09:21.951Z,17.30
2022-12-18T13:12:08.626Z,19.83
2022-12-18T13:14:39.402Z,18.20
2022-12-18T13:17:21.891Z,19.92
2022-12-18T13:20:04.343Z,22.60
2022-12-18T13:22:37.818Z,20.70
2022-12-18T13:25:33.057Z,26.17
2022-12-18T13:28:09.630Z,19.42
2022-12-18T13:30:42.950Z,17.40
2022-12-18T13:33:20.647Z,18.83
2022-12-18T13:35:48.157Z,23.75
2022-12-18T13:38:41.600Z,18.23
2022-12-18T13:41:18.906Z,19.92
2022-12-18T13:43:55.208Z,18.40
2022-12-18T13:46:43.871Z,19.67
2022-12-18T13:49:14.293Z,21.20
2022-12-18T13:51:45.405Z,21.67
2022-12-18T13:54:41.125Z,24.88
2022-12-18T13:57:28.881Z,30.75
2022-12-18T13:59:57.367Z,29.53
2022-12-18T14:02:27.540Z,20.73
2022-12-18T14:04:55.512Z,23.95
2022-12-18T14:07:31.368Z,20.02
2022-12-18T14:10:18.765Z,22.93
2022-12-18T14:13:00.322Z,26.83
2022-12-18T14:15:31.822Z,25.60
2022-12-18T14:18:46.272Z,23.85
2022-12-18T14:21:27.881Z,28.88
2022-12-18T14:24:19.680Z,28.07
2022-12-18T14:26:50.291Z,29.80
2022-12-18T14:29:26.156Z,33.83
2022-12-18T14:32:17.774Z,34.80
2022-12-18T14:34:51.354Z,32.10
2022-12-18T14:37:23.959Z,48.88
2022-12-18T14:39:55.516Z,55.07
2022-12-18T14:42:23.193Z,50.75
2022-12-18T14:45:12.491Z,45.63
2022-12-18T14:47:38.313Z,42.40
2022-12-18T14:50:14.920Z,35.03
2022-12-18T14:52:42.651Z,31.20
2022-12-18T14:55:21.235Z,28.25
2022-12-18T14:57:53.564Z,32.75
2022-12-18T15:00:26.138Z,29.65
2022-12-18T15:02:56.768Z,33.53
2022-12-18T15:05:30.357Z,32.33
2022-12-18T15:08:00.472Z,37.17
2022-12-18T15:10:29.463Z,49.60
2022-12-18T15:12:57.252Z,51.90
2022-12-18T15:15:34.224Z,55.03
2022-12-18T15:18:02.909Z,55.17
2022-12-18T15:21:04.378Z,61.45
2022-12-18T15:23:48.205Z,68.47
2022-12-18T15:26:38.051Z,63.67
2022-12-18T15:29:07.469Z,51.20
2022-12-18T15:31:36.672Z,60.33
2022-12-18T15:34:10.532Z,59.45
2022-12-18T15:36:38.994Z,56.60
2022-12-18T15:39:07.086Z,57.17
2022-12-18T15:41:37.239Z,60.90
2022-12-18T15:44:23.919Z,57.25
2022-12-18T15:46:51.774Z,65.45
2022-12-18T15:49:19.648Z,53.03
2022-12-18T15:51:53.039Z,57.50
2022-12-18T15:54:41.540Z,61.77
2022-12-18T15:57:33.499Z,94.72
2022-12-18T16:00:01.559Z,59.63
2022-12-18T16:02:30.017Z,58.00
2022-12-18T16:04:57.986Z,54.45
2022-12-18T16:07:28.124Z,40.80
2022-12-18T16:09:59.069Z,29.65
2022-12-18T16:12:28.774Z,28.60
2022-12-18T16:14:56.435Z,31.88
2022-12-18T16:17:24.200Z,32.72
2022-12-18T16:19:52.156Z,28.23
2022-12-18T16:22:26.057Z,29.02
2022-12-18T16:24:55.306Z,28.30
2022-12-18T16:27:24.488Z,30.02
2022-12-18T16:29:52.308Z,32.80
2022-12-18T16:32:22.260Z,45.47
2022-12-18T16:34:51.305Z,58.05
2022-12-18T16:37:19.358Z,41.72
2022-12-18T16:39:47.596Z,48.15
2022-12-18T16:42:20.553Z,57.65
2022-12-18T16:44:50.187Z,50.30
2022-12-18T16:47:18.169Z,49.58
2022-12-18T16:49:46.673Z,49.03
2022-12-18T16:52:14.594Z,42.90
2022-12-18T16:54:42.435Z,37.85
2022-12-18T16:57:15.291Z,32.57
2022-12-18T16:59:43.434Z,32.58
2022-12-18T17:02:18.233Z,30.83
2022-12-18T17:04:49.525Z,30.27
2022-12-18T17:07:18.247Z,30.17
2022-12-18T17:09:46.097Z,33.53
2022-12-18T17:12:14.993Z,29.90
2022-12-18T17:14:43.129Z,33.67
2022-12-18T17:17:26.398Z,37.85
2022-12-18T17:19:54.317Z,35.42
2022-12-18T17:22:23.442Z,34.10
2022-12-18T17:24:51.583Z,32.45
2022-12-18T17:27:19.420Z,38.92
2022-12-18T17:29:48.651Z,34.33
2022-12-18T17:32:17.917Z,40.35
2022-12-18T17:34:45.819Z,30.83
2022-12-18T17:37:13.976Z,37.90
2022-12-18T17:39:42.244Z,37.58
2022-12-18T17:42:12.049Z,36.03
2022-12-18T17:44:43.344Z,39.25
2022-12-18T17:47:12.997Z,41.07
2022-12-18T17:49:41.094Z,38.00
2022-12-18T17:52:09.161Z,48.55
2022-12-18T17:54:39.964Z,42.55
2022-12-18T17:57:08.104Z,42.35
2022-12-18T17:59:36.058Z,40.97
2022-12-18T18:02:04.104Z,43.08
2022-12-18T18:04:32.718Z,38.63
2022-12-18T18:07:00.504Z,41.75
2022-12-18T18:09:28.137Z,40.63
2022-12-18T18:12:17.315Z,47.10
2022-12-18T18:14:45.278Z,41.08
2022-12-18T18:17:13.431Z,49.28
2022-12-18T18:19:42.195Z,47.35
2022-12-18T18:22:12.084Z,50.00
2022-12-18T18:24:40.994Z,58.43
2022-12-18T18:27:08.884Z,51.15
2022-12-18T18:29:36.548Z,51.35
2022-12-18T18:32:04.906Z,47.03
2022-12-18T18:34:33.056Z,61.13
2022-12-18T18:37:02.026Z,47.30
2022-12-18T18:39:30.010Z,48.70
2022-12-18T18:41:57.951Z,47.85
2022-12-18T18:44:26.471Z,55.65
2022-12-18T18:46:58.616Z,55.33
2022-12-18T18:49:28.089Z,59.17
2022-12-18T18:51:57.433Z,56.13
2022-12-18T18:54:25.924Z,44.65
2022-12-18T18:57:19.422Z,40.83
2022-12-18T18:59:42.341Z,47.30
2022-12-18T19:02:13.305Z,44.77
2022-12-18T19:04:46.242Z,37.03
2022-12-18T19:07:18.484Z,34.22
2022-12-18T19:10:05.137Z,40.75
2022-12-18T19:12:53.418Z,34.63
2022-12-18T19:15:22.540Z,35.20
2022-12-18T19:17:50.301Z,34.13
2022-12-18T19:20:19.933Z,43.97
2022-12-18T19:22:48.005Z,42.50
2022-12-18T19:25:28.391Z,36.45
2022-12-18T19:28:10.995Z,40.27
2022-12-18T19:30:46.302Z,31.58
2022-12-18T19:33:41.639Z,30.92
2022-12-18T19:36:02.150Z,30.15
2022-12-18T19:38:33.467Z,30.83
2022-12-18T19:41:05.789Z,35.73
2022-12-18T19:43:37.478Z,32.47
2022-12-18T19:46:07.370Z,32.38
2022-12-18T19:48:35.585Z,30.45
2022-12-18T19:51:24.778Z,34.13
2022-12-18T19:53:58.190Z,29.00
2022-12-18T19:56:29.532Z,27.95
2022-12-18T19:58:57.985Z,29.65
2022-12-18T20:01:27.773Z,30.90
2022-12-18T20:03:56.816Z,34.20
2022-12-18T20:06:35.079Z,27.30
2022-12-18T20:09:06.322Z,28.20
2022-12-18T20:11:41.571Z,28.02
2022-12-18T20:14:11.097Z,31.90
2022-12-18T20:16:39.123Z,28.15
2022-12-18T20:19:07.222Z,29.60
2022-12-18T20:21:36.021Z,30.98
2022-12-18T20:24:04.044Z,31.42
2022-12-18T20:26:31.978Z,29.13
2022-12-18T20:29:00.217Z,22.75
2022-12-18T20:31:28.156Z,26.67
2022-12-18T20:34:00.303Z,28.83
2022-12-18T20:36:30.702Z,29.50
2022-12-18T20:39:01.616Z,29.08
2022-12-18T20:41:37.923Z,27.33
2022-12-18T20:44:10.428Z,29.37
2022-12-18T20:46:50.178Z,26.48
2022-12-18T20:49:18.179Z,27.77
2022-12-18T20:51:46.188Z,27.30
2022-12-18T20:54:13.713Z,30.60
2022-12-18T20:56:41.213Z,35.13
2022-12-18T20:59:09.527Z,30.88
2022-12-18T21:01:38.902Z,38.63
2022-12-18T21:04:13.054Z,27.73
2022-12-18T21:06:42.022Z,28.15
2022-12-18T21:09:11.327Z,33.83
2022-12-18T21:11:57.382Z,27.38
2022-12-18T21:14:27.470Z,28.95
2022-12-18T21:16:56.448Z,29.58
2022-12-18T21:19:27.113Z,27.83
2022-12-18T21:21:56.605Z,30.67
2022-12-18T21:24:24.774Z,29.73
2022-12-18T21:26:52.714Z,29.58
2022-12-18T21:29:24.969Z,29.38
2022-12-18T21:31:54.695Z,29.42
2022-12-18T21:34:28.219Z,25.17
2022-12-18T21:36:58.615Z,27.52
2022-12-18T21:39:27.929Z,33.08
2022-12-18T21:42:14.755Z,27.50
2022-12-18T21:44:43.892Z,29.52
2022-12-18T21:47:16.889Z,34.53
2022-12-18T21:49:52.869Z,25.88
2022-12-18T21:52:27.294Z,31.02
2022-12-18T21:55:09.063Z,29.15
2022-12-18T21:57:40.281Z,30.90
2022-12-18T22:00:18.186Z,28.43
2022-12-18T22:02:48.574Z,30.83
2022-12-18T22:05:35.943Z,26.65
2022-12-18T22:08:03.523Z,33.03
2022-12-18T22:10:31.104Z,26.70
2022-12-18T22:12:59.365Z,27.03
2022-12-18T22:15:27.102Z,30.75
2022-12-18T22:17:59.545Z,29.10
2022-12-18T22:20:29.742Z,28.77
2022-12-18T22:22:58.761Z,30.85
2022-12-18T22:25:28.524Z,27.83
2022-12-18T22:28:14.939Z,25.85
2022-12-18T22:30:43.731Z,29.70
2022-12-18T22:33:11.410Z,25.40
2022-12-18T22:35:39.010Z,24.13
2022-12-18T22:38:06.806Z,27.47
2022-12-18T22:40:34.364Z,21.60
2022-12-18T22:43:01.879Z,23.38
2022-12-18T22:45:29.473Z,29.77
2022-12-18T22:47:57.381Z,27.05
2022-12-18T22:50:24.982Z,27.90
2022-12-18T22:52:52.561Z,26.98
2022-12-18T22:55:20.489Z,29.98
2022-12-18T22:57:50.303Z,26.73
2022-12-18T23:00:23.921Z,31.23
2022-12-18T23:02:59.702Z,31.50
2022-12-18T23:05:29.780Z,22.98
2022-12-18T23:07:58.106Z,27.60
2022-12-18T23:10:25.952Z,24.92
2022-12-18T23:12:53.588Z,29.15
2022-12-18T23:15:28.375Z,29.70
2022-12-18T23:17:59.852Z,23.30
2022-12-18T23:20:28.345Z,25.77
2022-12-18T23:22:55.984Z,29.13
2022-12-18T23:25:23.508Z,30.77
2022-12-18T23:27:51.093Z,28.23
2022-12-18T23:30:18.633Z,29.63
2022-12-18T23:32:46.152Z,29.10
2022-12-18T23:35:15.552Z,31.67
2022-12-18T23:38:00.511Z,27.80
2022-12-18T23:40:29.875Z,34.60
2022-12-18T23:42:59.075Z,27.13
2022-12-18T23:45:26.523Z,24.88
2022-12-18T23:47:54.104Z,25.17
2022-12-18T23:50:24.045Z,30.60
2022-12-18T23:52:56.971Z,28.40
2022-12-18T23:55:30.093Z,24.83
2022-12-18T23:57:57.674Z,30.13
